Redwood Falls Municipal Airport Redwood Falls US
ICAO: KRWF
IATA: RWF
Category: Medium
Scheduled Services: No

Elevation: 1024 ft
TransAlt. 18000 ft.

Airport Communications:
ASOS:126.575
MINNEAPOLIS CNTR:127.1
PRINCETON RDO:122.4
CTAF/UNICOM:123

KRWF Zoom In..

Runways:

(A) RW 05 length 2081 ft width 200 ft
---- / hdg 50

(B) RW 12 length 4001 ft width 100 ft
---- / hdg 124

(C) RW 23 length 2081 ft width 200 ft
---- / hdg 230

(D) RW 30 length 4001 ft width 100 ft
---- / hdg 304

Location; KRWF
Day. 25 / Time. 01.49 Zulu
* Altimeter: 29.88
* Temperature: 03° c. 37.4°f.
* Wind from: 320° Speed 13 kn with Gusts up to 19 kn.
Dewpoint: 02° c.
Visibility: 9 Statute Miles.
Clouds: Few 600 ft.
Clouds: Broken 1200 ft.
Clouds: Overcast 2700 ft.

KRWF 250149Z AUTO 32013G19KT 9SM FEW006 BKN012 OVC027 03/02 A2988 RMK AO2

Going to: --> -->


Wind From 320°
Speed 13 kn.

 
 
jpsmedia worldairports.se 2020   terms of use